Bradford County (N27)
Towanda, PA
Field Elevation: 730
Lat: 41°44.40N  Long: 76°26.83W
CTAF/Unicom Freq: 123.0000
   
     For Weather-by-Phone, call (570) 265-1024
Weather Advisories
2019-06-15   20:54 Z
Altimeter 29.93" Hg
Wind 210° @ 11 KT
Gusts 14 KT
Visibility 10 SM
Ceiling FEW170
Temperature 24° C (75° F)
Dewpoint 11° C (52° F)
Relative Humidity 43%
Density Altitude 1,900 feet
Condensation Altitude 7,400 feet
Wind and Runways
Indicated Runway = 23
Headwind = 10 kt
Crosswind = 4 kt
History
 
 
 
More Info
All DigiWx sites map
NOAA Forecast
 
Airport IQ 5010
(LHV) Lock Haven
(PS81) Robert Packer Hospital
 
about DigiWx
 
FAA Disclaimer: The data displayed is for advisory purposes only and is not to be used for flight planning or operations. For official data, please call (570) 265-1024 to hear the current automated AWOS voice message.
  METAR N27 152054Z AUTO 21011G14KT 10 SM FEW170 24/11 A2993